sensor_id;sensor_type;location;lat;lon;timestamp;pressure;altitude;pressure_sealevel;temperature;humidity
46464;BME280;32161;48.148;-1.554;2023-02-03T00:01:35;102958.88;;;9.64;74.31
46464;BME280;32161;48.148;-1.554;2023-02-03T00:04:03;102955.19;;;9.65;73.88
46464;BME280;32161;48.148;-1.554;2023-02-03T00:06:32;102950.41;;;9.67;73.88
46464;BME280;32161;48.148;-1.554;2023-02-03T00:09:00;102948.72;;;9.66;73.94
46464;BME280;32161;48.148;-1.554;2023-02-03T00:11:30;102947.69;;;9.67;73.54
46464;BME280;32161;48.148;-1.554;2023-02-03T00:13:57;102947.88;;;9.65;73.64
46464;BME280;32161;48.148;-1.554;2023-02-03T00:16:25;102939.22;;;9.70;73.63
46464;BME280;32161;48.148;-1.554;2023-02-03T00:18:53;102940.25;;;9.69;73.95
46464;BME280;32161;48.148;-1.554;2023-02-03T00:21:20;102934.97;;;9.67;73.35
46464;BME280;32161;48.148;-1.554;2023-02-03T00:23:49;102930.06;;;9.63;73.95
46464;BME280;32161;48.148;-1.554;2023-02-03T00:26:17;102928.19;;;9.63;74.74
46464;BME280;32161;48.148;-1.554;2023-02-03T00:28:45;102944.81;;;9.60;74.31
46464;BME280;32161;48.148;-1.554;2023-02-03T00:31:18;102941.09;;;9.61;74.71
46464;BME280;32161;48.148;-1.554;2023-02-03T00:33:46;102948.38;;;9.61;74.11
46464;BME280;32161;48.148;-1.554;2023-02-03T00:36:14;102944.81;;;9.60;74.36
46464;BME280;32161;48.148;-1.554;2023-02-03T00:38:42;102945.50;;;9.62;74.05
46464;BME280;32161;48.148;-1.554;2023-02-03T00:41:11;102948.03;;;9.64;74.27
46464;BME280;32161;48.148;-1.554;2023-02-03T00:43:39;102951.78;;;9.63;74.13
46464;BME280;32161;48.148;-1.554;2023-02-03T00:46:06;102952.47;;;9.65;74.23
46464;BME280;32161;48.148;-1.554;2023-02-03T00:48:34;102946.16;;;9.64;74.93
46464;BME280;32161;48.148;-1.554;2023-02-03T00:51:01;102946.16;;;9.64;74.98
46464;BME280;32161;48.148;-1.554;2023-02-03T00:53:29;102950.22;;;9.60;75.50
46464;BME280;32161;48.148;-1.554;2023-02-03T00:55:56;102940.56;;;9.74;75.17
46464;BME280;32161;48.148;-1.554;2023-02-03T00:58:25;102940.91;;;9.71;74.66
46464;BME280;32161;48.148;-1.554;2023-02-03T01:00:54;102947.69;;;9.67;74.10
46464;BME280;32161;48.148;-1.554;2023-02-03T01:03:22;102950.75;;;9.56;73.72
46464;BME280;32161;48.148;-1.554;2023-02-03T01:05:50;102940.91;;;9.46;73.91
46464;BME280;32161;48.148;-1.554;2023-02-03T01:08:18;102948.53;;;9.43;74.70
46464;BME280;32161;48.148;-1.554;2023-02-03T01:10:45;102947.69;;;9.50;74.25
46464;BME280;32161;48.148;-1.554;2023-02-03T01:13:13;102947.19;;;9.55;73.66
46464;BME280;32161;48.148;-1.554;2023-02-03T01:15:46;102950.22;;;9.52;73.84
46464;BME280;32161;48.148;-1.554;2023-02-03T01:18:14;102944.66;;;9.62;73.63
46464;BME280;32161;48.148;-1.554;2023-02-03T01:20:41;102948.53;;;9.59;72.20
46464;BME280;32161;48.148;-1.554;2023-02-03T01:23:09;102945.66;;;9.77;71.68
46464;BME280;32161;48.148;-1.554;2023-02-03T01:25:36;102947.19;;;9.71;72.32
46464;BME280;32161;48.148;-1.554;2023-02-03T01:28:04;102946.00;;;9.82;71.67
46464;BME280;32161;48.148;-1.554;2023-02-03T01:30:32;102943.63;;;9.79;71.94
46464;BME280;32161;48.148;-1.554;2023-02-03T01:33:01;102941.75;;;9.55;73.15
46464;BME280;32161;48.148;-1.554;2023-02-03T01:35:28;102944.63;;;9.45;74.00
46464;BME280;32161;48.148;-1.554;2023-02-03T01:37:56;102941.56;;;9.48;73.44
46464;BME280;32161;48.148;-1.554;2023-02-03T01:40:24;102938.19;;;9.46;74.01
46464;BME280;32161;48.148;-1.554;2023-02-03T01:42:52;102937.34;;;9.46;74.09
46464;BME280;32161;48.148;-1.554;2023-02-03T01:45:19;102940.91;;;9.46;72.96
46464;BME280;32161;48.148;-1.554;2023-02-03T01:47:49;102925.28;;;9.48;73.25
46464;BME280;32161;48.148;-1.554;2023-02-03T01:50:24;102924.28;;;9.49;73.11
46464;BME280;32161;48.148;-1.554;2023-02-03T01:52:59;102928.38;;;9.53;74.09
46464;BME280;32161;48.148;-1.554;2023-02-03T01:55:33;102938.34;;;9.53;73.92
46464;BME280;32161;48.148;-1.554;2023-02-03T01:58:05;102936.16;;;9.57;74.31
46464;BME280;32161;48.148;-1.554;2023-02-03T02:00:34;102927.16;;;9.56;74.11
46464;BME280;32161;48.148;-1.554;2023-02-03T02:03:04;102921.72;;;9.56;74.00
46464;BME280;32161;48.148;-1.554;2023-02-03T02:05:39;102911.56;;;9.58;74.45
46464;BME280;32161;48.148;-1.554;2023-02-03T02:08:08;102903.22;;;9.60;75.37
46464;BME280;32161;48.148;-1.554;2023-02-03T02:10:38;102899.84;;;9.58;75.04
46464;BME280;32161;48.148;-1.554;2023-02-03T02:13:06;102899.50;;;9.52;74.96
46464;BME280;32161;48.148;-1.554;2023-02-03T02:15:45;102895.78;;;9.53;75.01
46464;BME280;32161;48.148;-1.554;2023-02-03T02:18:32;102895.41;;;9.57;74.36
46464;BME280;32161;48.148;-1.554;2023-02-03T02:28:10;102894.44;;;9.49;74.60
46464;BME280;32161;48.148;-1.554;2023-02-03T02:34:18;102878.13;;;9.41;75.54
46464;BME280;32161;48.148;-1.554;2023-02-03T02:37:00;102879.47;;;9.45;75.71
46464;BME280;32161;48.148;-1.554;2023-02-03T02:39:37;102880.69;;;9.43;75.12
46464;BME280;32161;48.148;-1.554;2023-02-03T02:42:13;102878.63;;;9.45;75.68
46464;BME280;32161;48.148;-1.554;2023-02-03T02:44:46;102871.84;;;9.41;75.53
46464;BME280;32161;48.148;-1.554;2023-02-03T02:47:18;102874.06;;;9.37;75.06
46464;BME280;32161;48.148;-1.554;2023-02-03T02:49:52;102876.94;;;9.36;75.60
46464;BME280;32161;48.148;-1.554;2023-02-03T02:52:21;102863.91;;;9.31;75.54
46464;BME280;32161;48.148;-1.554;2023-02-03T02:54:53;102856.75;;;9.30;76.13
46464;BME280;32161;48.148;-1.554;2023-02-03T02:57:23;102855.41;;;9.34;75.75
46464;BME280;32161;48.148;-1.554;2023-02-03T02:59:53;102857.78;;;9.37;74.83
46464;BME280;32161;48.148;-1.554;2023-02-03T03:02:21;102848.97;;;9.43;74.15
46464;BME280;32161;48.148;-1.554;2023-02-03T03:04:50;102849.63;;;9.29;75.78
46464;BME280;32161;48.148;-1.554;2023-02-03T03:07:22;102855.41;;;9.26;75.77
46464;BME280;32161;48.148;-1.554;2023-02-03T03:09:54;102865.06;;;9.28;76.45
46464;BME280;32161;48.148;-1.554;2023-02-03T03:12:28;102867.47;;;9.23;76.66
46464;BME280;32161;48.148;-1.554;2023-02-03T03:15:01;102872.19;;;9.21;76.62
46464;BME280;32161;48.148;-1.554;2023-02-03T03:17:33;102875.09;;;9.20;76.66
46464;BME280;32161;48.148;-1.554;2023-02-03T03:20:08;102870.50;;;9.20;76.30
46464;BME280;32161;48.148;-1.554;2023-02-03T03:22:43;102872.03;;;9.23;76.39
46464;BME280;32161;48.148;-1.554;2023-02-03T03:25:17;102883.56;;;9.25;76.25
46464;BME280;32161;48.148;-1.554;2023-02-03T03:27:49;102884.25;;;9.27;75.76
46464;BME280;32161;48.148;-1.554;2023-02-03T03:30:24;102878.31;;;9.32;75.90
46464;BME280;32161;48.148;-1.554;2023-02-03T03:32:53;102883.03;;;9.29;75.78
46464;BME280;32161;48.148;-1.554;2023-02-03T03:35:23;102884.25;;;9.27;76.04
46464;BME280;32161;48.148;-1.554;2023-02-03T03:37:58;102877.97;;;9.26;76.63
46464;BME280;32161;48.148;-1.554;2023-02-03T03:40:35;102877.09;;;9.26;76.47
46464;BME280;32161;48.148;-1.554;2023-02-03T03:43:09;102881.34;;;9.28;76.61
46464;BME280;32161;48.148;-1.554;2023-02-03T03:45:44;102873.91;;;9.31;77.44
46464;BME280;32161;48.148;-1.554;2023-02-03T03:48:20;102873.03;;;9.30;77.13
46464;BME280;32161;48.148;-1.554;2023-02-03T03:50:57;102876.78;;;9.29;77.19
46464;BME280;32161;48.148;-1.554;2023-02-03T03:53:29;102870.84;;;9.25;76.49
46464;BME280;32161;48.148;-1.554;2023-02-03T03:56:00;102867.13;;;9.26;76.33
46464;BME280;32161;48.148;-1.554;2023-02-03T03:58:31;102863.72;;;9.24;76.39
46464;BME280;32161;48.148;-1.554;2023-02-03T04:01:01;102863.72;;;9.24;76.88
46464;BME280;32161;48.148;-1.554;2023-02-03T04:03:34;102854.88;;;9.22;77.54
46464;BME280;32161;48.148;-1.554;2023-02-03T04:06:06;102862.38;;;9.20;76.92
46464;BME280;32161;48.148;-1.554;2023-02-03T04:08:34;102860.50;;;9.21;76.99
46464;BME280;32161;48.148;-1.554;2023-02-03T04:11:01;102854.03;;;9.22;77.39
46464;BME280;32161;48.148;-1.554;2023-02-03T04:13:29;102852.16;;;9.22;78.09
46464;BME280;32161;48.148;-1.554;2023-02-03T04:15:56;102853.03;;;9.23;77.83
46464;BME280;32161;48.148;-1.554;2023-02-03T04:18:24;102852.03;;;9.24;76.72
46464;BME280;32161;48.148;-1.554;2023-02-03T04:20:51;102863.53;;;9.26;77.65
46464;BME280;32161;48.148;-1.554;2023-02-03T04:23:20;102877.09;;;9.26;76.93
46464;BME280;32161;48.148;-1.554;2023-02-03T04:25:48;102881.69;;;9.25;77.06
46464;BME280;32161;48.148;-1.554;2023-02-03T04:28:16;102874.75;;;9.23;77.25
46464;BME280;32161;48.148;-1.554;2023-02-03T04:30:43;102880.84;;;9.25;77.05
46464;BME280;32161;48.148;-1.554;2023-02-03T04:33:11;102887.13;;;9.25;76.63
46464;BME280;32161;48.148;-1.554;2023-02-03T04:35:38;102881.69;;;9.25;77.08
46464;BME280;32161;48.148;-1.554;2023-02-03T04:38:06;102882.72;;;9.33;77.56
46464;BME280;32161;48.148;-1.554;2023-02-03T04:40:35;102885.75;;;9.29;77.53
46464;BME280;32161;48.148;-1.554;2023-02-03T04:43:05;102874.06;;;9.21;78.45
46464;BME280;32161;48.148;-1.554;2023-02-03T04:45:33;102876.97;;;9.19;78.98
46464;BME280;32161;48.148;-1.554;2023-02-03T04:48:01;102873.41;;;9.19;78.85
46464;BME280;32161;48.148;-1.554;2023-02-03T04:50:29;102871.53;;;9.19;79.01
46464;BME280;32161;48.148;-1.554;2023-02-03T04:52:57;102875.75;;;9.22;79.18
46464;BME280;32161;48.148;-1.554;2023-02-03T04:55:25;102876.44;;;9.24;78.81
46464;BME280;32161;48.148;-1.554;2023-02-03T04:57:56;102862.69;;;9.25;78.22
46464;BME280;32161;48.148;-1.554;2023-02-03T05:00:24;102858.47;;;9.23;77.74
46464;BME280;32161;48.148;-1.554;2023-02-03T05:02:51;102871.34;;;9.21;77.63
46464;BME280;32161;48.148;-1.554;2023-02-03T05:05:19;102870.69;;;9.19;77.92
46464;BME280;32161;48.148;-1.554;2023-02-03T05:07:46;102868.63;;;9.21;77.66
46464;BME280;32161;48.148;-1.554;2023-02-03T05:10:14;102863.19;;;9.21;77.35
46464;BME280;32161;48.148;-1.554;2023-02-03T05:12:42;102856.75;;;9.22;77.08
46464;BME280;32161;48.148;-1.554;2023-02-03T05:15:12;102862.88;;;9.24;77.42
46464;BME280;32161;48.148;-1.554;2023-02-03T05:17:39;102857.25;;;9.25;78.48
46464;BME280;32161;48.148;-1.554;2023-02-03T05:20:08;102860.81;;;9.26;78.84
46464;BME280;32161;48.148;-1.554;2023-02-03T05:22:36;102860.81;;;9.26;78.37
46464;BME280;32161;48.148;-1.554;2023-02-03T05:25:05;102864.56;;;9.25;77.81
46464;BME280;32161;48.148;-1.554;2023-02-03T05:27:33;102867.97;;;9.27;77.04
46464;BME280;32161;48.148;-1.554;2023-02-03T05:30:00;102871.69;;;9.26;76.94
46464;BME280;32161;48.148;-1.554;2023-02-03T05:32:29;102881.03;;;9.23;77.45
46464;BME280;32161;48.148;-1.554;2023-02-03T05:34:57;102880.00;;;9.24;77.34
46464;BME280;32161;48.148;-1.554;2023-02-03T05:37:24;102876.78;;;9.21;77.90
46464;BME280;32161;48.148;-1.554;2023-02-03T05:39:52;102877.28;;;9.16;78.20
46464;BME280;32161;48.148;-1.554;2023-02-03T05:42:45;102873.03;;;9.14;79.16
46464;BME280;32161;48.148;-1.554;2023-02-03T05:45:12;102881.88;;;9.16;78.64
46464;BME280;32161;48.148;-1.554;2023-02-03T05:47:41;102881.03;;;9.15;78.04
46464;BME280;32161;48.148;-1.554;2023-02-03T05:50:09;102884.56;;;9.16;77.38
46464;BME280;32161;48.148;-1.554;2023-02-03T05:52:37;102884.25;;;9.19;77.59
46464;BME280;32161;48.148;-1.554;2023-02-03T05:55:05;102882.53;;;9.18;78.15
46464;BME280;32161;48.148;-1.554;2023-02-03T05:57:32;102894.06;;;9.20;78.14
46464;BME280;32161;48.148;-1.554;2023-02-03T06:00:00;102890.34;;;9.21;78.61
46464;BME280;32161;48.148;-1.554;2023-02-03T06:02:28;102877.63;;;9.21;79.05
46464;BME280;32161;48.148;-1.554;2023-02-03T06:04:56;102884.59;;;9.24;78.99
46464;BME280;32161;48.148;-1.554;2023-02-03T06:07:24;102888.97;;;9.25;77.98
46464;BME280;32161;48.148;-1.554;2023-02-03T06:09:52;102886.97;;;9.27;78.03
46464;BME280;32161;48.148;-1.554;2023-02-03T06:12:19;102882.53;;;9.26;78.02
46464;BME280;32161;48.148;-1.554;2023-02-03T06:14:47;102882.53;;;9.26;77.87
46464;BME280;32161;48.148;-1.554;2023-02-03T06:17:14;102888.84;;;9.26;78.31
46464;BME280;32161;48.148;-1.554;2023-02-03T06:19:42;102890.53;;;9.27;77.83
46464;BME280;32161;48.148;-1.554;2023-02-03T06:22:11;102892.38;;;9.27;78.17
46464;BME280;32161;48.148;-1.554;2023-02-03T06:24:38;102895.09;;;9.27;77.74
46464;BME280;32161;48.148;-1.554;2023-02-03T06:27:06;102889.69;;;9.27;77.66
46464;BME280;32161;48.148;-1.554;2023-02-03T06:29:33;102892.22;;;9.28;78.89
46464;BME280;32161;48.148;-1.554;2023-02-03T06:32:01;102894.09;;;9.28;78.83
46464;BME280;32161;48.148;-1.554;2023-02-03T06:34:28;102900.88;;;9.24;78.47
46464;BME280;32161;48.148;-1.554;2023-02-03T06:36:56;102899.19;;;9.23;78.64
46464;BME280;32161;48.148;-1.554;2023-02-03T06:39:25;102901.88;;;9.23;79.20
46464;BME280;32161;48.148;-1.554;2023-02-03T06:41:53;102904.59;;;9.23;79.28
46464;BME280;32161;48.148;-1.554;2023-02-03T06:44:21;102905.59;;;9.22;78.90
46464;BME280;32161;48.148;-1.554;2023-02-03T06:46:49;102911.72;;;9.24;79.42
46464;BME280;32161;48.148;-1.554;2023-02-03T06:49:16;102909.66;;;9.26;79.11
46464;BME280;32161;48.148;-1.554;2023-02-03T06:51:44;102916.13;;;9.25;78.46
46464;BME280;32161;48.148;-1.554;2023-02-03T06:54:13;102907.97;;;9.25;78.30
46464;BME280;32161;48.148;-1.554;2023-02-03T06:56:42;102899.19;;;9.23;78.67
46464;BME280;32161;48.148;-1.554;2023-02-03T06:59:10;102909.84;;;9.24;78.37
46464;BME280;32161;48.148;-1.554;2023-02-03T07:01:37;102911.38;;;9.27;78.25
46464;BME280;32161;48.148;-1.554;2023-02-03T07:04:05;102918.50;;;9.28;78.08
46464;BME280;32161;48.148;-1.554;2023-02-03T07:06:32;102917.66;;;9.27;78.04
46464;BME280;32161;48.148;-1.554;2023-02-03T07:09:02;102923.09;;;9.27;77.64
46464;BME280;32161;48.148;-1.554;2023-02-03T07:11:30;102919.34;;;9.28;78.07
46464;BME280;32161;48.148;-1.554;2023-02-03T07:13:59;102918.69;;;9.26;78.61
46464;BME280;32161;48.148;-1.554;2023-02-03T07:16:27;102919.69;;;9.25;78.41
46464;BME280;32161;48.148;-1.554;2023-02-03T07:18:56;102914.25;;;9.25;78.35
46464;BME280;32161;48.148;-1.554;2023-02-03T07:21:25;102925.63;;;9.21;78.30
46464;BME280;32161;48.148;-1.554;2023-02-03T07:23:53;102923.75;;;9.21;78.78
46464;BME280;32161;48.148;-1.554;2023-02-03T07:26:20;102923.41;;;9.24;78.60
46464;BME280;32161;48.148;-1.554;2023-02-03T07:28:50;102927.66;;;9.27;78.96
46464;BME280;32161;48.148;-1.554;2023-02-03T07:31:21;102940.88;;;9.30;78.93
46464;BME280;32161;48.148;-1.554;2023-02-03T07:33:48;102945.81;;;9.35;78.30
46464;BME280;32161;48.148;-1.554;2023-02-03T07:36:16;102950.41;;;9.34;78.67
46464;BME280;32161;48.148;-1.554;2023-02-03T07:38:43;102945.66;;;9.28;78.77
46464;BME280;32161;48.148;-1.554;2023-02-03T07:41:11;102945.97;;;9.25;79.52
46464;BME280;32161;48.148;-1.554;2023-02-03T07:43:38;102959.88;;;9.22;79.90
46464;BME280;32161;48.148;-1.554;2023-02-03T07:46:06;102971.75;;;9.21;79.32
46464;BME280;32161;48.148;-1.554;2023-02-03T07:48:35;102971.41;;;9.24;78.85
46464;BME280;32161;48.148;-1.554;2023-02-03T07:51:03;102968.53;;;9.25;79.23
46464;BME280;32161;48.148;-1.554;2023-02-03T07:53:31;102967.69;;;9.25;80.53
46464;BME280;32161;48.148;-1.554;2023-02-03T07:55:59;102972.78;;;9.28;81.01
46464;BME280;32161;48.148;-1.554;2023-02-03T07:58:27;102972.59;;;9.29;79.33
46464;BME280;32161;48.148;-1.554;2023-02-03T08:00:56;102963.63;;;9.29;79.47
46464;BME280;32161;48.148;-1.554;2023-02-03T08:03:24;102971.59;;;9.31;79.30
46464;BME280;32161;48.148;-1.554;2023-02-03T08:05:53;102976.84;;;9.32;79.14
46464;BME280;32161;48.148;-1.554;2023-02-03T08:08:20;102980.94;;;9.36;78.89
46464;BME280;32161;48.148;-1.554;2023-02-03T08:10:48;102975.19;;;9.39;78.94
46464;BME280;32161;48.148;-1.554;2023-02-03T08:13:15;102973.13;;;9.41;78.68
46464;BME280;32161;48.148;-1.554;2023-02-03T08:15:43;102967.69;;;9.41;78.92
46464;BME280;32161;48.148;-1.554;2023-02-03T08:18:10;102983.84;;;9.43;78.83
46464;BME280;32161;48.148;-1.554;2023-02-03T08:20:38;102989.94;;;9.45;79.05
46464;BME280;32161;48.148;-1.554;2023-02-03T08:23:07;102991.13;;;9.50;78.69
46464;BME280;32161;48.148;-1.554;2023-02-03T08:25:35;103000.47;;;9.64;78.14
46464;BME280;32161;48.148;-1.554;2023-02-03T08:28:02;102999.09;;;9.60;79.08
46464;BME280;32161;48.148;-1.554;2023-02-03T08:30:30;103008.47;;;9.66;79.23
46464;BME280;32161;48.148;-1.554;2023-02-03T08:32:58;103014.06;;;9.72;78.56
46464;BME280;32161;48.148;-1.554;2023-02-03T08:35:25;103015.41;;;9.52;79.53
46464;BME280;32161;48.148;-1.554;2023-02-03T08:37:53;103023.34;;;9.45;79.18
46464;BME280;32161;48.148;-1.554;2023-02-03T08:40:22;103025.06;;;9.46;79.42
46464;BME280;32161;48.148;-1.554;2023-02-03T08:42:50;103031.34;;;9.47;79.80
46464;BME280;32161;48.148;-1.554;2023-02-03T08:45:18;103022.88;;;9.66;79.68
46464;BME280;32161;48.148;-1.554;2023-02-03T08:47:45;103024.91;;;9.64;79.48
46464;BME280;32161;48.148;-1.554;2023-02-03T08:50:13;103023.72;;;9.83;78.57
46464;BME280;32161;48.148;-1.554;2023-02-03T08:52:40;103024.06;;;9.64;79.25
46464;BME280;32161;48.148;-1.554;2023-02-03T08:55:08;103029.50;;;9.64;79.11
46464;BME280;32161;48.148;-1.554;2023-02-03T08:57:38;103027.97;;;9.61;79.99
46464;BME280;32161;48.148;-1.554;2023-02-03T09:00:09;103027.47;;;9.66;80.05
46464;BME280;32161;48.148;-1.554;2023-02-03T09:02:36;103031.56;;;9.70;80.26
46464;BME280;32161;48.148;-1.554;2023-02-03T09:05:04;103036.66;;;9.89;79.56
46464;BME280;32161;48.148;-1.554;2023-02-03T09:07:32;103035.44;;;9.75;80.03
46464;BME280;32161;48.148;-1.554;2023-02-03T09:10:00;103036.28;;;9.68;80.49
46464;BME280;32161;48.148;-1.554;2023-02-03T09:12:27;103041.38;;;9.71;80.81
46464;BME280;32161;48.148;-1.554;2023-02-03T09:14:56;103038.84;;;9.77;80.45
46464;BME280;32161;48.148;-1.554;2023-02-03T09:17:24;103042.75;;;9.75;80.32
46464;BME280;32161;48.148;-1.554;2023-02-03T09:19:51;103049.03;;;9.75;80.69
46464;BME280;32161;48.148;-1.554;2023-02-03T09:22:19;103056.19;;;9.85;80.66
46464;BME280;32161;48.148;-1.554;2023-02-03T09:24:46;103061.09;;;9.89;80.42
46464;BME280;32161;48.148;-1.554;2023-02-03T09:27:15;103052.78;;;9.91;80.58
46464;BME280;32161;48.148;-1.554;2023-02-03T09:29:43;103054.13;;;9.95;80.70
46464;BME280;32161;48.148;-1.554;2023-02-03T09:32:12;103055.16;;;10.10;80.43
46464;BME280;32161;48.148;-1.554;2023-02-03T09:34:39;103059.91;;;10.08;80.86
46464;BME280;32161;48.148;-1.554;2023-02-03T09:37:07;103056.34;;;10.08;81.20
46464;BME280;32161;48.148;-1.554;2023-02-03T09:39:35;103054.47;;;10.16;80.99
46464;BME280;32161;48.148;-1.554;2023-02-03T09:42:35;103058.88;;;10.17;81.06
46464;BME280;32161;48.148;-1.554;2023-02-03T09:45:17;103063.81;;;10.22;81.01
46464;BME280;32161;48.148;-1.554;2023-02-03T09:47:48;103063.50;;;10.25;81.42
46464;BME280;32161;48.148;-1.554;2023-02-03T09:50:23;103058.03;;;10.33;81.84
46464;BME280;32161;48.148;-1.554;2023-02-03T09:52:52;103066.91;;;10.35;82.35
46464;BME280;32161;48.148;-1.554;2023-02-03T09:55:28;103055.31;;;10.41;82.40
46464;BME280;32161;48.148;-1.554;2023-02-03T09:58:03;103059.91;;;10.41;82.49
46464;BME280;32161;48.148;-1.554;2023-02-03T10:00:35;103053.28;;;10.43;82.99
46464;BME280;32161;48.148;-1.554;2023-02-03T10:03:13;103048.69;;;10.44;83.07
46464;BME280;32161;48.148;-1.554;2023-02-03T10:06:22;103053.97;;;10.54;82.80
46464;BME280;32161;48.148;-1.554;2023-02-03T10:09:28;103062.06;;;10.70;82.39
46464;BME280;32161;48.148;-1.554;2023-02-03T10:12:22;103061.88;;;10.71;82.68
46464;BME280;32161;48.148;-1.554;2023-02-03T10:15:06;103059.13;;;10.88;82.54
46464;BME280;32161;48.148;-1.554;2023-02-03T10:17:45;103052.81;;;10.87;82.39
46464;BME280;32161;48.148;-1.554;2023-02-03T10:20:19;103057.91;;;10.90;81.79
46464;BME280;32161;48.148;-1.554;2023-02-03T10:22:52;103066.44;;;10.79;82.85
46464;BME280;32161;48.148;-1.554;2023-02-03T10:25:26;103070.53;;;10.83;83.06
46464;BME280;32161;48.148;-1.554;2023-02-03T10:28:01;103070.28;;;11.01;82.19
46464;BME280;32161;48.148;-1.554;2023-02-03T10:30:31;103067.88;;;11.06;81.92
46464;BME280;32161;48.148;-1.554;2023-02-03T10:33:09;103067.56;;;11.01;82.76
46464;BME280;32161;48.148;-1.554;2023-02-03T10:35:48;103064.13;;;11.15;83.00
46464;BME280;32161;48.148;-1.554;2023-02-03T10:38:32;103071.75;;;11.51;80.79
46464;BME280;32161;48.148;-1.554;2023-02-03T10:41:02;103080.66;;;11.68;79.18
46464;BME280;32161;48.148;-1.554;2023-02-03T10:43:31;103078.84;;;11.60;78.86
46464;BME280;32161;48.148;-1.554;2023-02-03T10:46:18;103075.72;;;11.40;79.76
46464;BME280;32161;48.148;-1.554;2023-02-03T10:48:47;103077.69;;;11.55;80.87
46464;BME280;32161;48.148;-1.554;2023-02-03T10:51:22;103079.16;;;11.65;81.61
46464;BME280;32161;48.148;-1.554;2023-02-03T10:53:51;103074.63;;;11.58;80.96
46464;BME280;32161;48.148;-1.554;2023-02-03T10:56:22;103073.22;;;11.62;80.82
46464;BME280;32161;48.148;-1.554;2023-02-03T10:58:53;103069.97;;;11.35;82.33
46464;BME280;32161;48.148;-1.554;2023-02-03T11:01:25;103072.00;;;11.64;80.68
46464;BME280;32161;48.148;-1.554;2023-02-03T11:03:56;103073.09;;;11.78;80.39
46464;BME280;32161;48.148;-1.554;2023-02-03T11:06:26;103066.94;;;11.61;81.24
46464;BME280;32161;48.148;-1.554;2023-02-03T11:08:54;103066.31;;;11.51;80.92
46464;BME280;32161;48.148;-1.554;2023-02-03T11:11:25;103062.78;;;11.42;80.93
46464;BME280;32161;48.148;-1.554;2023-02-03T11:13:54;103063.13;;;11.39;82.89
46464;BME280;32161;48.148;-1.554;2023-02-03T11:16:23;103058.28;;;11.81;82.04
46464;BME280;32161;48.148;-1.554;2023-02-03T11:18:54;103046.88;;;11.85;81.94
46464;BME280;32161;48.148;-1.554;2023-02-03T11:21:26;103050.84;;;11.97;80.69
46464;BME280;32161;48.148;-1.554;2023-02-03T11:24:00;103056.91;;;11.85;81.06
46464;BME280;32161;48.148;-1.554;2023-02-03T11:26:32;103049.38;;;12.10;79.17
46464;BME280;32161;48.148;-1.554;2023-02-03T11:29:03;103049.59;;;11.85;80.71
46464;BME280;32161;48.148;-1.554;2023-02-03T11:31:33;103049.50;;;12.16;80.03
46464;BME280;32161;48.148;-1.554;2023-02-03T11:34:04;103047.06;;;12.21;79.80
46464;BME280;32161;48.148;-1.554;2023-02-03T11:36:34;103041.03;;;12.11;79.44
46464;BME280;32161;48.148;-1.554;2023-02-03T11:39:22;103038.00;;;11.83;80.71
46464;BME280;32161;48.148;-1.554;2023-02-03T11:41:52;103040.88;;;11.59;81.83
46464;BME280;32161;48.148;-1.554;2023-02-03T11:44:23;103047.03;;;11.53;82.25
46464;BME280;32161;48.148;-1.554;2023-02-03T11:46:58;103049.06;;;11.59;82.42
46464;BME280;32161;48.148;-1.554;2023-02-03T11:50:06;103051.59;;;11.60;81.85
46464;BME280;32161;48.148;-1.554;2023-02-03T11:52:58;103044.28;;;11.61;82.55
46464;BME280;32161;48.148;-1.554;2023-02-03T11:55:45;103035.56;;;11.65;83.19
46464;BME280;32161;48.148;-1.554;2023-02-03T11:58:44;103042.25;;;11.86;82.26
46464;BME280;32161;48.148;-1.554;2023-02-03T12:01:21;103039.97;;;12.50;80.47
46464;BME280;32161;48.148;-1.554;2023-02-03T12:04:17;103040.34;;;12.47;79.89
46464;BME280;32161;48.148;-1.554;2023-02-03T12:07:12;103048.78;;;12.23;80.21
46464;BME280;32161;48.148;-1.554;2023-02-03T12:09:52;103048.44;;;12.55;77.89
46464;BME280;32161;48.148;-1.554;2023-02-03T12:12:37;103038.72;;;12.53;78.12
46464;BME280;32161;48.148;-1.554;2023-02-03T12:15:26;103032.81;;;12.34;80.00
46464;BME280;32161;48.148;-1.554;2023-02-03T12:18:11;103036.94;;;12.60;78.54
46464;BME280;32161;48.148;-1.554;2023-02-03T12:20:58;103028.22;;;12.50;77.67
46464;BME280;32161;48.148;-1.554;2023-02-03T12:23:39;103037.94;;;12.29;77.45
46464;BME280;32161;48.148;-1.554;2023-02-03T12:26:20;103026.19;;;12.29;77.04
46464;BME280;32161;48.148;-1.554;2023-02-03T12:28:57;103029.88;;;12.36;77.95
46464;BME280;32161;48.148;-1.554;2023-02-03T12:31:34;103029.13;;;12.27;77.28
46464;BME280;32161;48.148;-1.554;2023-02-03T12:34:14;103031.22;;;12.02;78.17
46464;BME280;32161;48.148;-1.554;2023-02-03T12:36:46;103024.03;;;11.86;79.58
46464;BME280;32161;48.148;-1.554;2023-02-03T12:39:25;103016.56;;;11.80;80.28
46464;BME280;32161;48.148;-1.554;2023-02-03T12:41:59;103023.31;;;11.92;79.74
46464;BME280;32161;48.148;-1.554;2023-02-03T12:44:33;103021.78;;;11.90;80.13
46464;BME280;32161;48.148;-1.554;2023-02-03T12:47:10;103016.69;;;11.87;80.89
46464;BME280;32161;48.148;-1.554;2023-02-03T12:49:43;103015.13;;;11.92;80.98
46464;BME280;32161;48.148;-1.554;2023-02-03T12:52:20;103020.88;;;11.97;80.38
46464;BME280;32161;48.148;-1.554;2023-02-03T12:55:00;103019.53;;;11.93;80.69
46464;BME280;32161;48.148;-1.554;2023-02-03T12:57:36;103025.34;;;11.90;81.32
46464;BME280;32161;48.148;-1.554;2023-02-03T13:00:18;103020.38;;;11.94;81.61
46464;BME280;32161;48.148;-1.554;2023-02-03T13:03:01;103011.38;;;11.93;81.41
46464;BME280;32161;48.148;-1.554;2023-02-03T13:05:41;103019.09;;;12.05;80.45
46464;BME280;32161;48.148;-1.554;2023-02-03T13:08:19;103012.72;;;12.12;80.20
46464;BME280;32161;48.148;-1.554;2023-02-03T13:10:52;103010.66;;;12.14;79.92
46464;BME280;32161;48.148;-1.554;2023-02-03T13:13:33;103014.25;;;12.15;79.81
46464;BME280;32161;48.148;-1.554;2023-02-03T13:16:06;103000.59;;;12.30;78.87
46464;BME280;32161;48.148;-1.554;2023-02-03T13:18:37;103008.25;;;12.34;78.87
46464;BME280;32161;48.148;-1.554;2023-02-03T13:21:09;103000.66;;;12.07;80.26